Faust — SLKQ — position and weather

sailwx.info

Track history (hours):
 
Tides and Currents Weather Stations Pressure Air Temp Water Temp Dewpoint Dewpoint Depression Visibility Wind Speed Wind Dir Waves Ship Positions

Faust

Last reported at 2015-May-27 16:33 UTC. Time now 2015-May-29 16:29 UTC.
Position N 27°34' W 015°15'.

Length 227.8 m; beam 32.3 m; draft 9.5 m.

Type: Cargo ship. MMSI: 266260000.

Date/timePositionNaut miles runAvg speedWind from/ knotsBaromVisibWave heightAir tempDewpointWater temp
2015-May-27 16:33N 27°34' W 015°15'1818.5
2015-May-27 15:33N 27°51' W 015°07'1818.1
2015-May-27 14:33N 28°08' W 014°60'1818.4
2015-May-27 13:33N 28°26' W 014°53'1918.6
2015-May-27 12:33N 28°44' W 014°48'32718.1
2015-May-26 18:27N 33°60' W 013°09'3517.6
2015-May-26 16:30N 34°33' W 012°58'1717.5
2015-May-26 15:33N 34°49' W 012°53'1817.7
2015-May-26 14:33N 35°06' W 012°48'1817.9
2015-May-26 13:33N 35°23' W 012°42'1817.7
2015-May-26 12:33N 35°40' W 012°36'1817.6
2015-May-26 11:33N 35°57' W 012°31'1817.5
2015-May-26 10:33N 36°14' W 012°24'3517.8
2015-May-26 08:33N 36°49' W 012°13'49215.9
2015-May-25 01:32N 43°48' W 006°36'1717.9
2015-May-25 00:33N 43°46' W 006°12'5417.9
2015-May-24 21:32N 43°39' W 004°58'224 7.0
2015-May-23 13:28N 47°22' W 005°28'17214.3
2015-May-23 01:24N 49°50' W 003°14'1417.0
2015-May-23 00:33N 49°58' W 002°54'1615.9
2015-May-22 23:33N 50°02' W 002°31'3014.5
2015-May-22 21:31N 50°15' W 001°49'1515.5
2015-May-22 20:33N 50°23' W 001°30'1716.7
2015-May-22 19:33N 50°31' W 001°07'1212.3
2015-May-22 18:34N 50°43' W 001°00'1212.2
2015-May-22 17:33N 50°49' W 001°17'6 5.8
2015-May-22 16:34N 50°53' W 001°24'0 0.0
2015-May-22 15:31N 50°53' W 001°24'0 0.0
2015-May-22 14:31N 50°53' W 001°24'0 0.0
2015-May-22 13:31N 50°53' W 001°24'0 0.0
2015-May-22 12:31N 50°53' W 001°24'0 0.0
2015-May-22 11:31N 50°53' W 001°24'0 0.0
2015-May-22 10:31N 50°53' W 001°24'0 0.0
2015-May-22 09:31N 50°53' W 001°24'0 0.0
2015-May-22 08:31N 50°53' W 001°24'0 0.0
2015-May-22 07:31N 50°53' W 001°24'0 0.0
2015-May-22 06:33N 50°53' W 001°24'0 0.0
2015-May-22 05:34N 50°53' W 001°24'0 0.0
2015-May-22 04:34N 50°53' W 001°24'0 0.0
2015-May-22 03:33N 50°53' W 001°24'0 0.0
2015-May-22 02:34N 50°53' W 001°24'0 0.0
2015-May-22 01:34N 50°53' W 001°24'0 0.1
2015-May-22 00:34N 50°53' W 001°24'6 6.3
2015-May-21 23:33N 50°48' W 001°18'1010.4
2015-May-21 22:33N 50°44' W 001°03'1111.4
2015-May-21 21:33N 50°38' W 000°48'1313.5
2015-May-21 20:33N 50°35' W 000°27'1515.3
2015-May-21 19:33N 50°32' W 000°03'1616.7
2015-May-21 18:34N 50°35' E 000°22'1616.5
2015-May-21 17:34N 50°43' E 000°45'1615.9
2015-May-21 16:33N 50°53' E 001°05'1515.2
2015-May-21 15:34N 51°02' E 001°24'1413.6
2015-May-21 14:34N 51°11' E 001°41'1413.9
2015-May-21 13:34N 51°21' E 001°55'1211.8
2015-May-21 12:34N 51°21' E 002°14'1515.0
2015-May-21 11:34N 51°23' E 002°38'1312.9
2015-May-21 10:33N 51°23' E 002°59'10 9.5
2015-May-21 09:33N 51°20' E 003°13'1 0.6
2015-May-21 08:33N 51°19' E 003°13'1 0.7
2015-May-21 07:33N 51°19' E 003°14'0 0.0
2015-May-21 06:33N 51°19' E 003°14'0 0.0
2015-May-21 05:33N 51°19' E 003°14'0 0.0
2015-May-21 04:33N 51°19' E 003°14'0 0.0
2015-May-21 03:33N 51°19' E 003°14'0 0.0
2015-May-21 02:30N 51°19' E 003°14'0 0.0
2015-May-21 01:30N 51°19' E 003°14'0 0.0
2015-May-21 00:33N 51°19' E 003°14'0 0.0
2015-May-20 23:33N 51°19' E 003°14'0 0.0
2015-May-20 22:30N 51°19' E 003°14'0 0.0
2015-May-20 21:30N 51°19' E 003°14'0 0.0
2015-May-20 20:33N 51°19' E 003°14'0 0.0
2015-May-20 19:33N 51°19' E 003°14'0 0.0
2015-May-20 18:33N 51°19' E 003°14'0 0.0
2015-May-20 17:33N 51°19' E 003°14'0 0.0
2015-May-20 16:33N 51°19' E 003°14'0 0.0
2015-May-20 15:33N 51°19' E 003°14'0 0.0
2015-May-20 14:33N 51°19' E 003°14'0 0.0
2015-May-20 13:30N 51°19' E 003°14'0 0.0
2015-May-20 12:33N 51°19' E 003°14'0 0.0
2015-May-20 11:33N 51°19' E 003°14'0 0.0
2015-May-20 10:33N 51°19' E 003°14'0 0.0
2015-May-20 09:33N 51°19' E 003°14'0 0.0
2015-May-20 08:30N 51°19' E 003°14'0 0.0
2015-May-20 07:33N 51°19' E 003°14'0 0.0
2015-May-20 06:33N 51°19' E 003°14'0 0.0
2015-May-20 05:33N 51°19' E 003°14'0 0.0
2015-May-20 04:33N 51°19' E 003°14'0 0.0
2015-May-20 03:33N 51°19' E 003°14'0 0.0
2015-May-20 02:33N 51°19' E 003°14'0 0.0
2015-May-20 01:33N 51°19' E 003°14'0 0.0
2015-May-20 00:33N 51°19' E 003°14'0 0.0
2015-May-19 23:33N 51°19' E 003°14'1 1.2
2015-May-19 22:33N 51°20' E 003°13'0 0.0
2015-May-19 21:33N 51°20' E 003°13'5 5.2
2015-May-19 20:34N 51°24' E 003°07'10 9.9
2015-May-19 19:33N 51°25' E 002°52'6 5.9
2015-May-19 18:33N 51°28' E 002°43'3 2.6
2015-May-19 17:33N 51°30' E 002°42'5 5.2
2015-May-19 16:33N 51°36' E 002°44'6 6.0
2015-May-19 15:32N 51°42' E 002°45'10811.8
2015-May-19 06:26N 53°10' E 004°25'2211.8
2015-May-19 04:33N 53°30' E 004°42'1212.4
2015-May-19 03:34N 53°34' E 005°01'1414.3
2015-May-19 02:33N 53°39' E 005°24'1514.8
2015-May-19 01:33N 53°44' E 005°48'1514.7
2015-May-19 00:33N 53°48' E 006°12'3013.6
2015-May-18 22:23N 53°54' E 007°01'1112.8
2015-May-18 21:33N 53°57' E 007°18'1212.1
2015-May-18 20:33N 53°60' E 007°38'1111.0
2015-May-18 19:33N 53°52' E 007°52'1313.1
2015-May-18 18:33N 53°46' E 008°11'1615.7
2015-May-18 17:33N 53°35' E 008°31'2 1.5
2015-May-18 16:33N 53°34' E 008°33'0 0.5
2015-May-18 15:33N 53°35' E 008°33'0 0.0
2015-May-18 14:34N 53°35' E 008°33'0 0.0
2015-May-18 13:34N 53°35' E 008°33'0 0.0
2015-May-18 12:32N 53°35' E 008°33'0 0.0
2015-May-18 11:32N 53°35' E 008°33'0 0.0
2015-May-18 10:32N 53°35' E 008°33'0 0.0
2015-May-18 09:32N 53°35' E 008°33'0 0.0
2015-May-18 08:32N 53°35' E 008°33'0 0.0
2015-May-18 07:32N 53°35' E 008°33'0 0.0
2015-May-18 06:32N 53°35' E 008°33'0 0.0
2015-May-18 05:32N 53°35' E 008°33'0 0.0
2015-May-18 04:32N 53°35' E 008°33'0 0.0
2015-May-18 03:32N 53°35' E 008°33'0 0.0
2015-May-18 02:32N 53°35' E 008°33'0 0.0
2015-May-18 01:32N 53°35' E 008°33'0 0.0
2015-May-18 00:32N 53°35' E 008°33'0 0.0
2015-May-17 23:32N 53°35' E 008°33'0 0.0
2015-May-17 22:32N 53°35' E 008°33'0 0.0
2015-May-17 21:32N 53°35' E 008°33'0 0.0
2015-May-17 20:32N 53°35' E 008°33'0 0.0
2015-May-17 19:32N 53°35' E 008°33'0 0.0
2015-May-17 18:32N 53°35' E 008°33'0 0.0
2015-May-17 17:32N 53°35' E 008°33'  
Track history (hours):
 
Tides and Currents Weather Stations Pressure Air Temp Water Temp Dewpoint Dewpoint Depression Visibility Wind Speed Wind Dir Waves Ship Positions

Faust

Last reported at 2015-May-27 16:33 UTC. Time now 2015-May-29 16:29 UTC.
Position N 27°34' W 015°15'.

Length 227.8 m; beam 32.3 m; draft 9.5 m.

Type: Cargo ship. MMSI: 266260000.

Date/timePositionNaut miles runAvg speedWind from/ knotsBaromVisibWave heightAir tempDewpointWater temp
2015-May-27 16:33N 27°34' W 015°15'1818.5
2015-May-27 15:33N 27°51' W 015°07'1818.1
2015-May-27 14:33N 28°08' W 014°60'1818.4
2015-May-27 13:33N 28°26' W 014°53'1918.6
2015-May-27 12:33N 28°44' W 014°48'32718.1
2015-May-26 18:27N 33°60' W 013°09'3517.6
2015-May-26 16:30N 34°33' W 012°58'1717.5
2015-May-26 15:33N 34°49' W 012°53'1817.7
2015-May-26 14:33N 35°06' W 012°48'1817.9
2015-May-26 13:33N 35°23' W 012°42'1817.7
2015-May-26 12:33N 35°40' W 012°36'1817.6
2015-May-26 11:33N 35°57' W 012°31'1817.5
2015-May-26 10:33N 36°14' W 012°24'3517.8
2015-May-26 08:33N 36°49' W 012°13'49215.9
2015-May-25 01:32N 43°48' W 006°36'1717.9
2015-May-25 00:33N 43°46' W 006°12'5417.9
2015-May-24 21:32N 43°39' W 004°58'224 7.0
2015-May-23 13:28N 47°22' W 005°28'17214.3
2015-May-23 01:24N 49°50' W 003°14'1417.0
2015-May-23 00:33N 49°58' W 002°54'1615.9
2015-May-22 23:33N 50°02' W 002°31'3014.5
2015-May-22 21:31N 50°15' W 001°49'1515.5
2015-May-22 20:33N 50°23' W 001°30'1716.7
2015-May-22 19:33N 50°31' W 001°07'1212.3
2015-May-22 18:34N 50°43' W 001°00'1212.2
2015-May-22 17:33N 50°49' W 001°17'6 5.8
2015-May-22 16:34N 50°53' W 001°24'0 0.0
2015-May-22 15:31N 50°53' W 001°24'0 0.0
2015-May-22 14:31N 50°53' W 001°24'0 0.0
2015-May-22 13:31N 50°53' W 001°24'0 0.0
2015-May-22 12:31N 50°53' W 001°24'0 0.0
2015-May-22 11:31N 50°53' W 001°24'0 0.0
2015-May-22 10:31N 50°53' W 001°24'0 0.0
2015-May-22 09:31N 50°53' W 001°24'0 0.0
2015-May-22 08:31N 50°53' W 001°24'0 0.0
2015-May-22 07:31N 50°53' W 001°24'0 0.0
2015-May-22 06:33N 50°53' W 001°24'0 0.0
2015-May-22 05:34N 50°53' W 001°24'0 0.0
2015-May-22 04:34N 50°53' W 001°24'0 0.0
2015-May-22 03:33N 50°53' W 001°24'0 0.0
2015-May-22 02:34N 50°53' W 001°24'0 0.0
2015-May-22 01:34N 50°53' W 001°24'0 0.1
2015-May-22 00:34N 50°53' W 001°24'6 6.3
2015-May-21 23:33N 50°48' W 001°18'1010.4
2015-May-21 22:33N 50°44' W 001°03'1111.4
2015-May-21 21:33N 50°38' W 000°48'1313.5
2015-May-21 20:33N 50°35' W 000°27'1515.3
2015-May-21 19:33N 50°32' W 000°03'1616.7
2015-May-21 18:34N 50°35' E 000°22'1616.5
2015-May-21 17:34N 50°43' E 000°45'1615.9
2015-May-21 16:33N 50°53' E 001°05'1515.2
2015-May-21 15:34N 51°02' E 001°24'1413.6
2015-May-21 14:34N 51°11' E 001°41'1413.9
2015-May-21 13:34N 51°21' E 001°55'1211.8
2015-May-21 12:34N 51°21' E 002°14'1515.0
2015-May-21 11:34N 51°23' E 002°38'1312.9
2015-May-21 10:33N 51°23' E 002°59'10 9.5
2015-May-21 09:33N 51°20' E 003°13'1 0.6
2015-May-21 08:33N 51°19' E 003°13'1 0.7
2015-May-21 07:33N 51°19' E 003°14'0 0.0
2015-May-21 06:33N 51°19' E 003°14'0 0.0
2015-May-21 05:33N 51°19' E 003°14'0 0.0
2015-May-21 04:33N 51°19' E 003°14'0 0.0
2015-May-21 03:33N 51°19' E 003°14'0 0.0
2015-May-21 02:30N 51°19' E 003°14'0 0.0
2015-May-21 01:30N 51°19' E 003°14'0 0.0
2015-May-21 00:33N 51°19' E 003°14'0 0.0
2015-May-20 23:33N 51°19' E 003°14'0 0.0
2015-May-20 22:30N 51°19' E 003°14'0 0.0
2015-May-20 21:30N 51°19' E 003°14'0 0.0
2015-May-20 20:33N 51°19' E 003°14'0 0.0
2015-May-20 19:33N 51°19' E 003°14'0 0.0
2015-May-20 18:33N 51°19' E 003°14'0 0.0
2015-May-20 17:33N 51°19' E 003°14'0 0.0
2015-May-20 16:33N 51°19' E 003°14'0 0.0
2015-May-20 15:33N 51°19' E 003°14'0 0.0
2015-May-20 14:33N 51°19' E 003°14'0 0.0
2015-May-20 13:30N 51°19' E 003°14'0 0.0
2015-May-20 12:33N 51°19' E 003°14'0 0.0
2015-May-20 11:33N 51°19' E 003°14'0 0.0
2015-May-20 10:33N 51°19' E 003°14'0 0.0
2015-May-20 09:33N 51°19' E 003°14'0 0.0
2015-May-20 08:30N 51°19' E 003°14'0 0.0
2015-May-20 07:33N 51°19' E 003°14'0 0.0
2015-May-20 06:33N 51°19' E 003°14'0 0.0
2015-May-20 05:33N 51°19' E 003°14'0 0.0
2015-May-20 04:33N 51°19' E 003°14'0 0.0
2015-May-20 03:33N 51°19' E 003°14'0 0.0
2015-May-20 02:33N 51°19' E 003°14'0 0.0
2015-May-20 01:33N 51°19' E 003°14'0 0.0
2015-May-20 00:33N 51°19' E 003°14'0 0.0
2015-May-19 23:33N 51°19' E 003°14'1 1.2
2015-May-19 22:33N 51°20' E 003°13'0 0.0
2015-May-19 21:33N 51°20' E 003°13'5 5.2
2015-May-19 20:34N 51°24' E 003°07'10 9.9
2015-May-19 19:33N 51°25' E 002°52'6 5.9
2015-May-19 18:33N 51°28' E 002°43'3 2.6
2015-May-19 17:33N 51°30' E 002°42'5 5.2
2015-May-19 16:33N 51°36' E 002°44'6 6.0
2015-May-19 15:32N 51°42' E 002°45'10811.8
2015-May-19 06:26N 53°10' E 004°25'2211.8
2015-May-19 04:33N 53°30' E 004°42'1212.4
2015-May-19 03:34N 53°34' E 005°01'1414.3
2015-May-19 02:33N 53°39' E 005°24'1514.8
2015-May-19 01:33N 53°44' E 005°48'1514.7
2015-May-19 00:33N 53°48' E 006°12'3013.6
2015-May-18 22:23N 53°54' E 007°01'1112.8
2015-May-18 21:33N 53°57' E 007°18'1212.1
2015-May-18 20:33N 53°60' E 007°38'1111.0
2015-May-18 19:33N 53°52' E 007°52'1313.1
2015-May-18 18:33N 53°46' E 008°11'1615.7
2015-May-18 17:33N 53°35' E 008°31'2 1.5
2015-May-18 16:33N 53°34' E 008°33'0 0.5
2015-May-18 15:33N 53°35' E 008°33'0 0.0
2015-May-18 14:34N 53°35' E 008°33'0 0.0
2015-May-18 13:34N 53°35' E 008°33'0 0.0
2015-May-18 12:32N 53°35' E 008°33'0 0.0
2015-May-18 11:32N 53°35' E 008°33'0 0.0
2015-May-18 10:32N 53°35' E 008°33'0 0.0
2015-May-18 09:32N 53°35' E 008°33'0 0.0
2015-May-18 08:32N 53°35' E 008°33'0 0.0
2015-May-18 07:32N 53°35' E 008°33'0 0.0
2015-May-18 06:32N 53°35' E 008°33'0 0.0
2015-May-18 05:32N 53°35' E 008°33'0 0.0
2015-May-18 04:32N 53°35' E 008°33'0 0.0
2015-May-18 03:32N 53°35' E 008°33'0 0.0
2015-May-18 02:32N 53°35' E 008°33'0 0.0
2015-May-18 01:32N 53°35' E 008°33'0 0.0
2015-May-18 00:32N 53°35' E 008°33'0 0.0
2015-May-17 23:32N 53°35' E 008°33'0 0.0
2015-May-17 22:32N 53°35' E 008°33'0 0.0
2015-May-17 21:32N 53°35' E 008°33'0 0.0
2015-May-17 20:32N 53°35' E 008°33'0 0.0
2015-May-17 19:32N 53°35' E 008°33'0 0.0
2015-May-17 18:32N 53°35' E 008°33'0 0.0
2015-May-17 17:32N 53°35' E 008°33'  

Dump ship's entire track history